createdAt,value
2023-02-07T00:00:17.176Z,104432.88
2023-02-07T00:03:02.971Z,104426.78
2023-02-07T00:05:48.835Z,104428.47
2023-02-07T00:08:36.611Z,104421.44
2023-02-07T00:11:23.295Z,104416.25
2023-02-07T00:14:10.216Z,104409.34
2023-02-07T00:16:55.840Z,104412.00
2023-02-07T00:19:41.700Z,104400.69
2023-02-07T00:22:27.598Z,104395.47
2023-02-07T00:25:14.587Z,104391.91
2023-02-07T00:28:00.482Z,104388.44
2023-02-07T00:30:46.668Z,104392.75
2023-02-07T00:33:32.495Z,104390.13
2023-02-07T00:36:19.275Z,104380.59
2023-02-07T00:39:05.756Z,104377.13
2023-02-07T00:41:54.077Z,104372.75
2023-02-07T00:44:40.204Z,104380.41
2023-02-07T00:47:25.992Z,104392.53
2023-02-07T00:50:11.762Z,104399.34
2023-02-07T00:52:57.506Z,104389.78
2023-02-07T00:55:43.214Z,104394.97
2023-02-07T00:58:30.386Z,104388.84
2023-02-07T01:01:16.311Z,104393.16
2023-02-07T01:04:02.080Z,104393.13
2023-02-07T01:06:47.999Z,104401.84
2023-02-07T01:09:33.799Z,104397.00
2023-02-07T01:12:19.654Z,104386.97
2023-02-07T01:15:08.126Z,104382.06
2023-02-07T01:17:53.922Z,104384.19
2023-02-07T01:20:40.056Z,104388.66
2023-02-07T01:23:26.048Z,104402.66
2023-02-07T01:26:11.802Z,104393.34
2023-02-07T01:28:57.537Z,104405.66
2023-02-07T01:31:44.855Z,104415.31
2023-02-07T01:34:30.948Z,104406.72
2023-02-07T01:37:16.755Z,104429.50
2023-02-07T01:40:02.611Z,104434.81
2023-02-07T01:42:48.577Z,104431.44
2023-02-07T01:45:35.419Z,104440.16
2023-02-07T01:48:23.724Z,104456.63
2023-02-07T01:51:10.789Z,104460.97
2023-02-07T01:53:57.217Z,104472.28
2023-02-07T01:56:44.025Z,104478.41
2023-02-07T01:59:30.114Z,104482.84
2023-02-07T02:02:17.569Z,104494.91
2023-02-07T02:05:06.994Z,104500.06
2023-02-07T02:07:53.041Z,104503.47
2023-02-07T02:10:51.797Z,104508.59
2023-02-07T02:13:39.642Z,104511.94
2023-02-07T02:16:26.858Z,104509.28
2023-02-07T02:19:28.459Z,104508.31
2023-02-07T02:22:28.780Z,104509.06
2023-02-07T02:25:22.380Z,104502.09
2023-02-07T02:28:11.966Z,104500.19
2023-02-07T02:31:03.048Z,104504.53
2023-02-07T02:33:50.898Z,104502.66
2023-02-07T02:36:38.669Z,104500.81
2023-02-07T02:39:27.248Z,104495.56
2023-02-07T02:42:16.190Z,104498.09
2023-02-07T02:45:03.719Z,104504.91
2023-02-07T02:47:50.356Z,104503.13
2023-02-07T02:50:37.741Z,104502.97
2023-02-07T02:53:23.999Z,104495.97
2023-02-07T02:56:32.550Z,104486.28
2023-02-07T02:59:38.502Z,104481.81
2023-02-07T03:02:28.551Z,104471.44
2023-02-07T03:05:18.202Z,104476.50
2023-02-07T03:08:08.106Z,104474.72
2023-02-07T03:10:58.623Z,104473.81
2023-02-07T03:13:50.979Z,104465.09
2023-02-07T03:16:39.954Z,104461.50
2023-02-07T03:19:28.714Z,104456.25
2023-02-07T03:22:15.296Z,104441.41
2023-02-07T03:25:04.169Z,104429.25
2023-02-07T03:27:52.222Z,104423.06
2023-02-07T03:30:38.030Z,104426.56
2023-02-07T03:33:23.806Z,104409.97
2023-02-07T03:36:10.490Z,104402.03
2023-02-07T03:38:56.456Z,104396.81
2023-02-07T03:41:45.227Z,104393.16
2023-02-07T03:44:31.740Z,104385.28
2023-02-07T03:47:18.457Z,104386.03
2023-02-07T03:50:04.748Z,104384.28
2023-02-07T03:52:51.090Z,104378.97
2023-02-07T03:55:37.350Z,104380.81
2023-02-07T03:58:24.805Z,104372.09
2023-02-07T04:01:10.676Z,104366.94
2023-02-07T04:03:56.730Z,104372.00
2023-02-07T04:06:42.704Z,104363.22
2023-02-07T04:09:28.341Z,104359.66
2023-02-07T04:12:14.139Z,104356.19
2023-02-07T04:15:01.279Z,104352.72
2023-02-07T04:17:47.202Z,104347.34
2023-02-07T04:20:33.055Z,104333.47
2023-02-07T04:23:18.741Z,104334.28
2023-02-07T04:26:04.511Z,104336.88
2023-02-07T04:28:50.707Z,104335.13
2023-02-07T04:31:38.472Z,104323.03
2023-02-07T04:34:24.485Z,104313.44
2023-02-07T04:37:10.409Z,104312.53
2023-02-07T04:39:56.088Z,104310.78
2023-02-07T04:42:42.016Z,104312.44
2023-02-07T04:45:27.846Z,104308.84
2023-02-07T04:48:14.822Z,104308.78
2023-02-07T04:51:00.577Z,104318.28
2023-02-07T04:53:46.563Z,104305.28
2023-02-07T04:56:32.322Z,104298.34
2023-02-07T04:59:18.231Z,104290.47
2023-02-07T05:02:04.027Z,104288.72
2023-02-07T05:04:51.442Z,104283.41
2023-02-07T05:07:37.153Z,104292.94
2023-02-07T05:10:22.821Z,104289.41
2023-02-07T05:13:08.647Z,104290.28
2023-02-07T05:15:54.397Z,104284.16
2023-02-07T05:18:40.321Z,104295.38
2023-02-07T05:21:27.618Z,104298.81
2023-02-07T05:24:13.367Z,104301.41
2023-02-07T05:26:59.174Z,104288.41
2023-02-07T05:29:45.110Z,104288.34
2023-02-07T05:32:48.508Z,104283.16
2023-02-07T05:35:34.769Z,104277.84
2023-02-07T05:38:22.248Z,104285.59
2023-02-07T05:41:07.948Z,104294.22
2023-02-07T05:43:53.890Z,104301.16
2023-02-07T05:46:39.739Z,104295.09
2023-02-07T05:49:25.415Z,104301.16
2023-02-07T05:52:11.159Z,104299.34
2023-02-07T05:54:58.454Z,104299.22
2023-02-07T05:57:44.949Z,104308.69
2023-02-07T06:00:30.760Z,104311.25
2023-02-07T06:03:16.651Z,104302.56
2023-02-07T06:06:02.402Z,104304.22
2023-02-07T06:08:48.248Z,104304.22
2023-02-07T06:11:35.308Z,104301.63
2023-02-07T06:14:21.260Z,104309.41
2023-02-07T06:17:07.134Z,104321.50
2023-02-07T06:19:53.722Z,104328.28
2023-02-07T06:22:39.846Z,104319.59
2023-02-07T06:25:25.514Z,104324.69
2023-02-07T06:28:12.773Z,104330.78
2023-02-07T06:30:59.375Z,104332.59
2023-02-07T06:33:45.479Z,104328.19
2023-02-07T06:36:31.410Z,104341.19
2023-02-07T06:39:17.676Z,104349.88
2023-02-07T06:42:03.441Z,104353.38
2023-02-07T06:44:50.782Z,104359.31
2023-02-07T06:47:36.601Z,104372.28
2023-02-07T06:50:22.375Z,104371.31
2023-02-07T06:53:08.294Z,104371.41
2023-02-07T06:55:54.398Z,104381.72
2023-02-07T06:58:40.232Z,104386.00
2023-02-07T07:01:27.387Z,104388.59
2023-02-07T07:04:13.193Z,104388.53
2023-02-07T07:06:58.947Z,104395.47
2023-02-07T07:09:45.875Z,104399.75
2023-02-07T07:12:31.647Z,104392.84
2023-02-07T07:15:18.302Z,104396.31
2023-02-07T07:18:05.547Z,104394.59
2023-02-07T07:20:53.498Z,104393.72
2023-02-07T07:23:39.237Z,104395.44
2023-02-07T07:26:25.498Z,104394.47
2023-02-07T07:29:11.548Z,104396.19
2023-02-07T07:31:58.012Z,104404.88
2023-02-07T07:34:45.460Z,104407.47
2023-02-07T07:37:31.396Z,104403.22
2023-02-07T07:40:17.951Z,104402.41
2023-02-07T07:43:03.846Z,104407.59
2023-02-07T07:45:59.981Z,104407.59
2023-02-07T07:48:45.943Z,104401.63
2023-02-07T07:51:33.029Z,104412.84
2023-02-07T07:54:18.920Z,104416.38
2023-02-07T07:57:04.851Z,104408.75
2023-02-07T07:59:50.706Z,104407.09
2023-02-07T08:02:36.516Z,104408.19
2023-02-07T08:05:22.299Z,104411.69
2023-02-07T08:08:09.444Z,104420.38
2023-02-07T08:10:55.357Z,104430.94
2023-02-07T08:13:41.316Z,104434.94
2023-02-07T08:16:27.360Z,104435.41
2023-02-07T08:19:13.112Z,104442.75
2023-02-07T08:21:59.104Z,104455.28
2023-02-07T08:24:46.318Z,104456.53
2023-02-07T08:27:32.137Z,104458.69
2023-02-07T08:30:18.832Z,104474.66
2023-02-07T08:33:04.880Z,104478.34
2023-02-07T08:35:50.929Z,104488.94
2023-02-07T08:38:36.964Z,104491.72
2023-02-07T08:41:24.099Z,104500.66
2023-02-07T08:44:09.830Z,104507.78
2023-02-07T08:46:55.769Z,104511.47
2023-02-07T08:49:41.579Z,104511.53
2023-02-07T08:52:29.037Z,104503.03
2023-02-07T08:55:15.701Z,104512.69
2023-02-07T08:58:02.758Z,104517.09
2023-02-07T09:00:48.518Z,104513.03
2023-02-07T09:03:34.416Z,104520.97
2023-02-07T09:06:20.237Z,104528.13
2023-02-07T09:09:06.122Z,104532.53
2023-02-07T09:11:52.047Z,104535.19
2023-02-07T09:14:39.700Z,104536.25
2023-02-07T09:17:25.819Z,104539.84
2023-02-07T09:20:12.138Z,104534.78
2023-02-07T09:23:15.853Z,104544.50
2023-02-07T09:26:02.553Z,104529.06
2023-02-07T09:28:48.442Z,104530.16
2023-02-07T09:31:35.779Z,104535.53
2023-02-07T09:34:21.756Z,104530.53
2023-02-07T09:37:07.524Z,104526.44
2023-02-07T09:39:53.366Z,104515.38
2023-02-07T09:42:40.169Z,104514.63
2023-02-07T09:45:26.593Z,104516.56
2023-02-07T09:48:15.751Z,104514.06
2023-02-07T09:51:02.815Z,104510.69
2023-02-07T09:53:50.748Z,104503.06
2023-02-07T09:56:36.682Z,104481.41
2023-02-07T09:59:24.613Z,104459.75
2023-02-07T10:02:16.630Z,104438.13
2023-02-07T10:05:04.906Z,104421.72
2023-02-07T10:07:51.512Z,104409.63
2023-02-07T10:10:39.167Z,104390.47
2023-02-07T10:13:29.129Z,104378.31
2023-02-07T10:16:17.633Z,104363.53
2023-02-07T10:19:06.892Z,104347.94
2023-02-07T10:21:56.606Z,104329.69
2023-02-07T10:24:49.067Z,104316.69
2023-02-07T10:27:37.714Z,104310.63
2023-02-07T10:30:24.230Z,104293.19
2023-02-07T10:33:13.376Z,104271.41
2023-02-07T10:35:59.372Z,104246.13
2023-02-07T10:38:52.128Z,104212.06
2023-02-07T10:41:45.034Z,104163.97
2023-02-07T10:44:31.023Z,104132.41
2023-02-07T10:47:17.390Z,104097.34
2023-02-07T10:50:04.562Z,104036.88
2023-02-07T10:52:51.277Z,103999.53
2023-02-07T10:55:43.089Z,103934.03
2023-02-07T10:58:34.755Z,103856.47
2023-02-07T11:01:21.574Z,103794.50
2023-02-07T11:04:09.207Z,103690.41
2023-02-07T11:07:00.776Z,103623.28
2023-02-07T11:09:46.802Z,103574.56
2023-02-07T11:12:34.047Z,103520.41
2023-02-07T11:15:20.966Z,103502.69
2023-02-07T11:18:07.040Z,103482.38
2023-02-07T11:20:55.955Z,103488.28
2023-02-07T11:23:43.910Z,103478.75
2023-02-07T11:26:30.004Z,103472.63
2023-02-07T11:29:18.013Z,103472.34
2023-02-07T11:32:04.161Z,103475.28
2023-02-07T11:34:50.881Z,103465.47
2023-02-07T11:37:37.208Z,103457.09
2023-02-07T11:40:25.081Z,103458.81
2023-02-07T11:43:12.290Z,103455.47
2023-02-07T11:46:01.458Z,103447.31
2023-02-07T11:48:48.709Z,103445.22
2023-02-07T11:51:35.228Z,103445.06
2023-02-07T11:54:21.402Z,103443.75
2023-02-07T11:57:07.771Z,103435.16
2023-02-07T11:59:59.223Z,103444.63
2023-02-07T12:02:49.183Z,103449.84
2023-02-07T12:05:35.515Z,103444.50
2023-02-07T12:08:24.086Z,103450.88
2023-02-07T12:11:11.665Z,103444.50
2023-02-07T12:13:57.917Z,103442.38
2023-02-07T12:16:45.111Z,103457.34
2023-02-07T12:19:33.131Z,103457.06
2023-02-07T12:22:20.194Z,103455.25
2023-02-07T12:25:07.039Z,103451.44
2023-02-07T12:27:53.635Z,103458.38
2023-02-07T12:30:41.825Z,103443.75
2023-02-07T12:33:31.271Z,103435.00
2023-02-07T12:36:21.144Z,103429.78
2023-02-07T12:39:08.766Z,103423.44
2023-02-07T12:41:55.208Z,103418.16
2023-02-07T12:44:41.969Z,103418.31
2023-02-07T12:47:30.879Z,103432.13
2023-02-07T12:50:18.540Z,103416.88
2023-02-07T12:53:09.844Z,103397.59
2023-02-07T12:55:57.718Z,103396.72
2023-02-07T12:58:46.481Z,103415.53
2023-02-07T13:01:34.003Z,103415.63
2023-02-07T13:04:37.555Z,103430.28
2023-02-07T13:07:26.833Z,103420.19
2023-02-07T13:10:19.409Z,103440.72
2023-02-07T13:13:07.153Z,103446.19
2023-02-07T13:15:54.332Z,103444.53
2023-02-07T13:18:41.273Z,103451.28
2023-02-07T13:21:28.254Z,103490.41
2023-02-07T13:24:14.654Z,103498.28
2023-02-07T13:27:04.112Z,103493.72
2023-02-07T13:29:50.405Z,103477.75
2023-02-07T13:32:36.632Z,103487.69
2023-02-07T13:35:23.000Z,103489.16
2023-02-07T13:38:10.228Z,103459.94
2023-02-07T13:40:56.667Z,103459.19
2023-02-07T13:43:47.782Z,103498.53
2023-02-07T13:46:44.269Z,103501.94
2023-02-07T13:49:33.760Z,103504.91
2023-02-07T13:52:21.930Z,103491.66
2023-02-07T13:55:11.111Z,103458.22
2023-02-07T13:58:14.923Z,103487.41
2023-02-07T14:01:08.857Z,103485.16
2023-02-07T14:04:01.954Z,103480.44
2023-02-07T14:06:56.608Z,103493.72
2023-02-07T14:09:45.933Z,103486.25
2023-02-07T14:12:32.968Z,103474.91
2023-02-07T14:15:42.749Z,103473.38
2023-02-07T14:18:40.689Z,103463.63
2023-02-07T14:21:29.887Z,103491.56
2023-02-07T14:24:20.243Z,103491.50
2023-02-07T14:27:09.968Z,103492.44
2023-02-07T14:30:10.631Z,103493.31
2023-02-07T14:33:11.467Z,103488.50
2023-02-07T14:36:06.938Z,103485.44
2023-02-07T14:39:04.395Z,103481.25
2023-02-07T14:41:51.461Z,103457.66
2023-02-07T14:44:37.790Z,103419.19
2023-02-07T14:47:24.528Z,103391.25
2023-02-07T14:50:12.045Z,103399.94
2023-02-07T14:53:00.439Z,103393.97
2023-02-07T14:55:48.358Z,103396.22
2023-02-07T14:58:35.679Z,103393.75
2023-02-07T15:01:22.238Z,103382.59
2023-02-07T15:04:08.339Z,103381.06
2023-02-07T15:06:54.375Z,103379.56
2023-02-07T15:09:41.668Z,103374.94
2023-02-07T15:12:27.984Z,103368.09
2023-02-07T15:15:18.366Z,103357.78
2023-02-07T15:18:04.426Z,103356.28
2023-02-07T15:20:50.503Z,103347.66
2023-02-07T15:23:36.564Z,103343.44
2023-02-07T15:26:23.707Z,103339.44
2023-02-07T15:29:19.612Z,103331.75
2023-02-07T15:32:12.880Z,103329.25
2023-02-07T15:34:58.847Z,103328.44
2023-02-07T15:37:46.318Z,103312.00
2023-02-07T15:40:32.514Z,103322.72
2023-02-07T15:43:27.235Z,103323.03
2023-02-07T15:46:13.035Z,103326.69
2023-02-07T15:48:59.389Z,103322.41
2023-02-07T15:51:45.111Z,103316.34
2023-02-07T15:54:31.511Z,103310.59
2023-02-07T15:57:20.053Z,103316.00
2023-02-07T16:00:08.273Z,103311.81
2023-02-07T16:03:00.722Z,103304.09
2023-02-07T16:05:46.380Z,103306.03
2023-02-07T16:08:33.607Z,103300.03
2023-02-07T16:11:35.150Z,103300.16
2023-02-07T16:14:22.565Z,103294.31
2023-02-07T16:17:17.404Z,103302.47
2023-02-07T16:20:03.392Z,103301.78
2023-02-07T16:22:49.389Z,103308.09
2023-02-07T16:25:35.368Z,103304.69
2023-02-07T16:28:21.464Z,103303.09
2023-02-07T16:31:07.285Z,103310.19
2023-02-07T16:33:54.828Z,103319.06
2023-02-07T16:36:41.535Z,103317.41
2023-02-07T16:39:27.850Z,103324.56
2023-02-07T16:42:14.143Z,103332.53
2023-02-07T16:45:00.436Z,103343.13
2023-02-07T16:47:46.302Z,103348.47
2023-02-07T16:50:33.493Z,103356.47
2023-02-07T16:53:19.441Z,103360.03
2023-02-07T16:56:05.390Z,103373.19
2023-02-07T16:58:51.465Z,103372.44
2023-02-07T17:01:37.271Z,103381.19
2023-02-07T17:04:22.995Z,103392.63
2023-02-07T17:07:11.454Z,103388.34
2023-02-07T17:09:57.286Z,103396.25
2023-02-07T17:12:43.350Z,103397.19
2023-02-07T17:15:29.053Z,103417.25
2023-02-07T17:18:14.820Z,103417.31
2023-02-07T17:21:00.598Z,103425.19
2023-02-07T17:23:48.957Z,103440.03
2023-02-07T17:26:34.956Z,103447.06
2023-02-07T17:29:21.021Z,103455.78
2023-02-07T17:32:07.714Z,103468.00
2023-02-07T17:34:53.306Z,103479.34
2023-02-07T17:37:39.084Z,103485.44
2023-02-07T17:40:28.201Z,103498.50
2023-02-07T17:43:14.010Z,103515.06
2023-02-07T17:46:00.228Z,103529.00
2023-02-07T17:48:47.383Z,103542.91
2023-02-07T17:51:33.257Z,103556.84
2023-02-07T17:54:18.912Z,103570.78
2023-02-07T17:57:06.065Z,103588.16
2023-02-07T17:59:51.873Z,103595.97
2023-02-07T18:02:38.016Z,103610.75
2023-02-07T18:05:24.318Z,103609.91
2023-02-07T18:08:12.056Z,103628.13
2023-02-07T18:11:01.392Z,103636.84
2023-02-07T18:13:48.727Z,103645.53
2023-02-07T18:16:34.443Z,103651.59
2023-02-07T18:19:21.173Z,103666.34
2023-02-07T18:22:06.969Z,103685.47
2023-02-07T18:24:52.725Z,103689.81
2023-02-07T18:27:38.975Z,103702.81
2023-02-07T18:30:27.101Z,103709.72
2023-02-07T18:33:14.268Z,103713.22
2023-02-07T18:36:00.308Z,103727.97
2023-02-07T18:38:46.126Z,103737.50
2023-02-07T18:41:31.818Z,103755.72
2023-02-07T18:44:17.728Z,103764.38
2023-02-07T18:47:05.005Z,103765.22
2023-02-07T18:49:50.793Z,103773.91
2023-02-07T18:52:37.043Z,103781.69
2023-02-07T18:55:23.139Z,103799.91
2023-02-07T18:58:08.849Z,103821.56
2023-02-07T19:00:54.707Z,103826.75
2023-02-07T19:03:41.696Z,103838.03
2023-02-07T19:06:27.960Z,103844.94
2023-02-07T19:09:14.231Z,103862.22
2023-02-07T19:11:59.902Z,103871.75
2023-02-07T19:14:45.695Z,103882.16
2023-02-07T19:17:31.557Z,103889.06
2023-02-07T19:20:18.587Z,103894.19
2023-02-07T19:23:04.309Z,103902.00
2023-02-07T19:25:50.112Z,103906.31
2023-02-07T19:28:36.785Z,103921.00
2023-02-07T19:31:24.498Z,103931.41
2023-02-07T19:34:10.958Z,103945.22
2023-02-07T19:36:58.280Z,103950.38
2023-02-07T19:39:46.037Z,103959.03
2023-02-07T19:42:31.977Z,103964.19
2023-02-07T19:45:18.034Z,103965.03
2023-02-07T19:48:03.995Z,103970.97
2023-02-07T19:50:49.727Z,103975.31
2023-02-07T19:53:37.308Z,103990.03
2023-02-07T19:56:24.111Z,103983.94
2023-02-07T19:59:10.956Z,103989.94
2023-02-07T20:01:56.787Z,104002.94
2023-02-07T20:04:43.298Z,104004.63
2023-02-07T20:07:29.040Z,104010.66
2023-02-07T20:10:16.231Z,104012.38
2023-02-07T20:13:02.077Z,104014.94
2023-02-07T20:15:48.034Z,104016.66
2023-02-07T20:18:34.420Z,104029.59
2023-02-07T20:21:21.118Z,104040.84
2023-02-07T20:24:07.513Z,104043.38
2023-02-07T20:26:54.544Z,104045.91
2023-02-07T20:29:40.346Z,104043.25
2023-02-07T20:32:28.614Z,104058.81
2023-02-07T20:35:19.511Z,104071.78
2023-02-07T20:38:28.023Z,104070.81
2023-02-07T20:41:16.018Z,104067.22
2023-02-07T20:44:05.587Z,104070.63
2023-02-07T20:46:52.579Z,104067.13
2023-02-07T20:49:58.506Z,104067.94
2023-02-07T20:52:48.021Z,104070.47
2023-02-07T20:55:36.303Z,104066.91
2023-02-07T20:58:31.473Z,104076.41
2023-02-07T21:01:22.048Z,104080.66
2023-02-07T21:04:14.137Z,104088.38
2023-02-07T21:07:05.603Z,104086.53
2023-02-07T21:09:51.786Z,104095.06
2023-02-07T21:12:42.446Z,104096.72
2023-02-07T21:15:28.569Z,104108.84
2023-02-07T21:18:15.602Z,104116.59
2023-02-07T21:21:23.716Z,104127.78
2023-02-07T21:24:12.853Z,104135.53
2023-02-07T21:26:59.056Z,104132.84
2023-02-07T21:29:44.695Z,104141.47
2023-02-07T21:32:33.401Z,104141.41
2023-02-07T21:35:24.165Z,104144.84
2023-02-07T21:38:13.508Z,104145.75
2023-02-07T21:41:06.749Z,104157.84
2023-02-07T21:43:56.467Z,104167.34
2023-02-07T21:46:46.313Z,104165.53
2023-02-07T21:49:39.409Z,104159.47
2023-02-07T21:52:28.505Z,104179.38
2023-02-07T21:55:14.739Z,104177.63
2023-02-07T21:58:06.328Z,104184.56
2023-02-07T22:00:52.513Z,104183.63
2023-02-07T22:03:39.095Z,104194.00
2023-02-07T22:06:24.820Z,104191.41
2023-02-07T22:09:12.874Z,104190.47
2023-02-07T22:11:58.790Z,104202.50
2023-02-07T22:14:44.394Z,104207.66
2023-02-07T22:17:30.244Z,104208.50
2023-02-07T22:20:16.113Z,104214.53
2023-02-07T22:23:02.314Z,104217.94
2023-02-07T22:25:49.502Z,104211.88
2023-02-07T22:28:35.335Z,104213.56
2023-02-07T22:31:22.212Z,104216.13
2023-02-07T22:34:08.861Z,104219.59
2023-02-07T22:36:54.909Z,104223.03
2023-02-07T22:39:40.790Z,104226.47
2023-02-07T22:42:27.819Z,104220.41
2023-02-07T22:45:13.502Z,104226.47
2023-02-07T22:47:59.372Z,104236.84
2023-02-07T22:50:45.057Z,104235.06
2023-02-07T22:53:30.900Z,104244.53
2023-02-07T22:56:17.134Z,104239.28
2023-02-07T22:59:04.340Z,104243.53
2023-02-07T23:01:50.051Z,104237.31
2023-02-07T23:04:35.877Z,104247.69
2023-02-07T23:07:21.706Z,104258.06
2023-02-07T23:10:07.969Z,104258.91
2023-02-07T23:12:54.560Z,104257.06
2023-02-07T23:15:46.170Z,104253.56
2023-02-07T23:18:32.266Z,104263.91
2023-02-07T23:21:18.564Z,104267.31
2023-02-07T23:24:04.535Z,104275.06
2023-02-07T23:26:50.503Z,104280.25
2023-02-07T23:29:36.411Z,104277.66
2023-02-07T23:32:23.456Z,104281.13
2023-02-07T23:35:09.368Z,104277.63
2023-02-07T23:37:55.177Z,104281.09
2023-02-07T23:40:41.254Z,104276.75
2023-02-07T23:43:27.370Z,104287.13
2023-02-07T23:46:13.379Z,104276.75
2023-02-07T23:49:00.944Z,104274.94
2023-02-07T23:51:46.910Z,104277.53
2023-02-07T23:54:33.114Z,104277.47
2023-02-07T23:57:18.832Z,104277.31
